Time;durP1;ratioP1;P1;durP2;ratioP2;P2;SDS_P1;SDS_P2;PMS_P1;PMS_P2;Temp;Humidity;BMP_temperature;BMP_pressure;BME280_temperature;BME280_humidity;BME280_pressure;Samples;Min_cycle;Max_cycle;Signal;HPM_P1;HPM_P2
2022/12/31 00:02:08;;;;;;;2.53;1.33;;;;;;;13.88;92.09;100074.69;3565483;40;20063;-64
2022/12/31 00:04:34;;;;;;;1.27;1.17;;;;;;;13.87;91.90;100078.41;3563519;40;20093;-65
2022/12/31 00:06:59;;;;;;;1.88;1.02;;;;;;;13.82;92.28;100058.19;3566221;40;20069;-65
2022/12/31 00:09:25;;;;;;;2.55;1.40;;;;;;;13.88;92.43;100063.06;3562775;40;20064;-65
2022/12/31 00:11:51;;;;;;;2.92;1.23;;;;;;;13.88;92.15;100063.06;3564087;40;20404;-64
2022/12/31 00:14:16;;;;;;;2.15;1.20;;;;;;;13.88;92.18;100063.91;3567316;40;20119;-64
2022/12/31 00:16:42;;;;;;;1.30;1.20;;;;;;;13.88;91.88;100063.06;3562060;40;20076;-63
2022/12/31 00:19:11;;;;;;;0.95;0.95;;;;;;;13.87;92.72;100066.75;3562777;40;20312;-63
2022/12/31 00:21:37;;;;;;;1.10;1.10;;;;;;;13.87;92.54;100056.78;3567288;40;20045;-65
2022/12/31 00:24:05;;;;;;;1.85;1.08;;;;;;;13.90;92.75;100069.19;3564983;40;20061;-65
2022/12/31 00:26:33;;;;;;;1.25;1.20;;;;;;;13.32;92.89;99985.13;3565251;40;20059;-65
2022/12/31 00:29:01;;;;;;;3.17;1.52;;;;;;;13.90;93.43;100077.28;3564226;40;20083;-65
2022/12/31 00:31:34;;;;;;;1.63;1.42;;;;;;;13.94;92.80;100062.50;3563976;40;20478;-65
2022/12/31 00:34:00;;;;;;;;;;;;;;;13.90;93.12;100050.28;3565715;40;20064;-66
2022/12/31 00:36:30;;;;;;;3.78;1.17;;;;;;;13.91;93.15;100057.38;3566556;40;19979;-65
2022/12/31 00:38:59;;;;;;;1.65;1.48;;;;;;;13.90;93.23;100043.00;3564397;40;20049;-65
2022/12/31 00:41:28;;;;;;;2.13;1.33;;;;;;;13.91;94.14;100031.22;3563673;40;20065;-64
2022/12/31 00:43:54;;;;;;;1.17;1.15;;;;;;;13.90;93.41;100045.72;3566477;40;20052;-64
2022/12/31 00:46:20;;;;;;;1.00;0.90;;;;;;;13.90;93.27;100055.69;3563446;40;20053;-63
2022/12/31 00:48:46;;;;;;;1.00;0.73;;;;;;;13.91;92.90;100047.41;3568105;40;20053;-65
2022/12/31 00:51:16;;;;;;;2.20;0.80;;;;;;;13.88;93.19;100042.28;3563760;40;20049;-65
2022/12/31 00:53:42;;;;;;;1.83;0.90;;;;;;;13.91;92.85;100058.22;3563633;40;20065;-65
2022/12/31 00:56:19;;;;;;;1.40;0.85;;;;;;;13.89;92.87;100046.72;3563719;40;20057;-65
2022/12/31 00:58:45;;;;;;;1.30;0.68;;;;;;;13.89;92.84;100038.63;3564141;40;20069;-65
2022/12/31 01:01:22;;;;;;;0.80;0.55;;;;;;;13.89;93.06;100037.72;3564069;40;20059;-65
2022/12/31 01:03:51;;;;;;;0.80;0.80;;;;;;;13.88;93.49;100041.44;3566663;40;20402;-64
2022/12/31 01:06:18;;;;;;;0.90;0.68;;;;;;;13.86;93.33;100036.19;3565512;40;20103;-64
2022/12/31 01:08:46;;;;;;;1.33;0.90;;;;;;;13.82;93.93;100034.72;3563836;40;20061;-65
2022/12/31 01:11:18;;;;;;;1.10;0.80;;;;;;;13.88;93.85;100036.88;3565249;40;20119;-65
2022/12/31 01:14:15;;;;;;;0.95;0.70;;;;;;;13.82;94.05;100031.16;3567119;40;20049;-65
2022/12/31 01:16:48;;;;;;;0.50;0.50;;;;;;;13.82;93.88;100023.06;3563464;40;20101;-65
2022/12/31 01:19:26;;;;;;;0.70;0.70;;;;;;;13.78;93.67;100019.78;3563999;40;20447;-66
2022/12/31 01:21:52;;;;;;;0.85;0.40;;;;;;;13.77;93.49;100022.63;3565126;40;20108;-65
2022/12/31 01:24:19;;;;;;;0.50;0.50;;;;;;;13.72;93.36;100024.88;3565843;40;20080;-65
2022/12/31 01:26:46;;;;;;;1.05;0.40;;;;;;;13.68;93.90;100027.84;3563420;40;20420;-65
2022/12/31 01:29:13;;;;;;;0.40;0.40;;;;;;;13.65;93.89;100036.22;3563808;40;20115;-65
2022/12/31 01:31:39;;;;;;;0.63;0.30;;;;;;;13.63;93.45;100048.13;3564004;40;20049;-65
2022/12/31 01:34:06;;;;;;;0.95;0.50;;;;;;;13.60;93.95;100054.66;3564281;40;20361;-65
2022/12/31 01:36:35;;;;;;;0.75;0.40;;;;;;;13.59;93.81;100057.50;3565264;40;20065;-65
2022/12/31 01:39:04;;;;;;;0.60;0.55;;;;;;;13.57;94.21;100046.81;3562210;40;20061;-65
2022/12/31 01:41:36;;;;;;;0.45;0.30;;;;;;;13.55;94.31;100046.09;3564163;40;20279;-65
2022/12/31 01:44:22;;;;;;;0.73;0.60;;;;;;;13.52;94.33;100059.03;3565357;40;20060;-65
2022/12/31 01:47:02;;;;;;;0.25;0.22;;;;;;;13.49;94.54;100060.13;3541304;40;20082;-65
2022/12/31 01:49:59;;;;;;;0.45;0.30;;;;;;;13.50;94.62;100064.53;3565454;40;20060;-65
2022/12/31 01:52:36;;;;;;;0.77;0.35;;;;;;;13.50;94.68;100088.84;3562432;40;20415;-65
2022/12/31 01:55:24;;;;;;;0.32;0.32;;;;;;;13.24;94.81;100072.16;3566499;40;20095;-66
2022/12/31 01:57:57;;;;;;;0.60;0.60;;;;;;;13.48;95.12;100112.44;3555217;40;20053;-65
2022/12/31 02:00:24;;;;;;;0.90;0.30;;;;;;;13.51;95.42;100097.78;3564962;40;20411;-65
2022/12/31 02:02:50;;;;;;;0.40;0.22;;;;;;;13.51;95.01;100060.88;3553730;40;20060;-65
2022/12/31 02:05:47;;;;;;;0.30;0.30;;;;;;;13.51;95.11;100063.56;3566309;40;20103;-64
2022/12/31 02:08:13;;;;;;;1.45;0.25;;;;;;;13.54;94.87;100073.22;3566345;40;20072;-63
2022/12/31 02:10:39;;;;;;;1.35;0.50;;;;;;;13.53;95.15;100082.31;3565854;40;20415;-63
2022/12/31 02:13:05;;;;;;;1.55;0.30;;;;;;;13.53;94.95;100069.69;3564541;40;20350;-63
2022/12/31 02:16:26;;;;;;;0.80;0.40;;;;;;;13.55;95.21;100078.50;3562556;40;20497;-63
2022/12/31 02:19:30;;;;;;;0.63;0.60;;;;;;;13.50;95.10;100091.53;3541522;40;20057;-63
2022/12/31 02:22:17;;;;;;;0.60;0.55;;;;;;;13.54;95.05;100093.00;3564171;40;20057;-63
2022/12/31 02:25:20;;;;;;;0.57;0.50;;;;;;;13.56;95.25;100111.75;3565708;40;20053;-63
2022/12/31 02:28:29;;;;;;;0.47;0.47;;;;;;;13.56;94.96;100107.22;3563318;40;20049;-63
2022/12/31 02:31:35;;;;;;;0.45;0.45;;;;;;;13.57;94.73;100114.31;3566481;40;20089;-63
2022/12/31 02:34:22;;;;;;;0.88;0.73;;;;;;;13.57;94.78;100108.06;3558958;40;20045;-64
2022/12/31 02:36:55;;;;;;;0.70;0.70;;;;;;;13.59;95.00;100106.97;3565343;40;20372;-64
2022/12/31 02:39:21;;;;;;;;;;;;;;;13.56;94.88;100118.03;3568877;40;20053;-64
2022/12/31 02:41:48;;;;;;;1.30;1.20;;;;;;;13.57;95.01;100129.66;3566918;40;19933;-65
2022/12/31 02:44:31;;;;;;;1.02;1.00;;;;;;;13.57;95.02;100135.06;3564657;40;20131;-68
2022/12/31 02:47:27;;;;;;;1.95;1.50;;;;;;;13.56;94.68;100128.81;3565091;40;20060;-65
2022/12/31 02:50:20;;;;;;;1.25;1.17;;;;;;;13.54;95.07;100127.22;3562312;40;20053;-66
2022/12/31 02:52:51;;;;;;;1.57;1.33;;;;;;;13.10;94.89;100043.66;3564734;40;20045;-66
2022/12/31 02:55:37;;;;;;;1.25;1.23;;;;;;;13.51;95.13;100112.19;3562900;40;20286;-65
2022/12/31 03:04:32;;;;;;;1.50;1.40;;;;;;;13.46;95.27;100106.31;3567362;40;20158;-65
2022/12/31 03:07:11;;;;;;;1.60;1.50;;;;;;;13.46;95.44;100095.50;3568200;40;20053;-66
2022/12/31 03:09:37;;;;;;;1.60;1.50;;;;;;;13.45;95.33;100099.19;3565944;40;20049;-66
2022/12/31 03:14:52;;;;;;;1.70;1.60;;;;;;;13.38;95.11;100096.16;3566083;40;20043;-67
2022/12/31 03:17:18;;;;;;;1.98;1.50;;;;;;;13.38;95.45;100087.19;3563647;40;20057;-64
2022/12/31 03:22:29;;;;;;;1.60;1.50;;;;;;;13.40;95.92;100080.69;3563885;40;20522;-65
2022/12/31 03:27:53;;;;;;;1.00;1.00;;;;;;;13.37;95.49;100082.78;3564124;40;20135;-63
2022/12/31 03:30:21;;;;;;;1.42;1.42;;;;;;;13.37;95.42;100080.09;3556860;40;20486;-63
2022/12/31 03:32:48;;;;;;;1.30;1.30;;;;;;;13.32;95.92;100075.09;3565136;40;20335;-64
2022/12/31 03:35:19;;;;;;;1.67;1.60;;;;;;;13.37;96.01;100077.38;3565856;40;20342;-64
2022/12/31 03:37:46;;;;;;;1.60;1.50;;;;;;;13.35;95.72;100071.25;3566962;40;20052;-64
2022/12/31 03:40:15;;;;;;;1.88;1.25;;;;;;;13.34;95.60;100058.75;3562211;40;20069;-64
2022/12/31 03:42:41;;;;;;;1.73;1.48;;;;;;;13.26;95.40;100039.66;3563170;40;20649;-64
2022/12/31 03:45:09;;;;;;;1.15;1.15;;;;;;;13.34;95.70;100062.31;3566623;40;20084;-65
2022/12/31 03:47:35;;;;;;;1.10;1.10;;;;;;;13.33;95.57;100057.91;3563094;40;20045;-64
2022/12/31 03:50:01;;;;;;;1.50;1.20;;;;;;;13.35;95.85;100055.06;3562161;40;20421;-64
2022/12/31 03:52:27;;;;;;;1.10;1.10;;;;;;;13.34;95.31;100045.25;3566196;40;20053;-64
2022/12/31 03:54:52;;;;;;;0.90;0.90;;;;;;;13.32;95.29;100056.19;3563507;40;20064;-64
2022/12/31 03:57:18;;;;;;;2.45;0.93;;;;;;;13.32;95.71;100042.72;3562422;40;20092;-64
2022/12/31 03:59:44;;;;;;;0.77;0.77;;;;;;;13.33;95.75;100043.56;3562237;40;20411;-65
2022/12/31 04:02:09;;;;;;;0.50;0.50;;;;;;;13.00;95.83;99986.03;3563612;40;20057;-65
2022/12/31 04:04:35;;;;;;;0.40;0.40;;;;;;;13.33;95.71;100032.75;3563352;40;20061;-65
2022/12/31 04:07:01;;;;;;;0.50;0.50;;;;;;;13.34;96.39;100048.81;3566523;40;20059;-64
2022/12/31 04:09:26;;;;;;;0.50;0.50;;;;;;;13.35;96.58;100039.75;3564446;40;20044;-63
2022/12/31 04:11:52;;;;;;;0.30;0.30;;;;;;;13.40;97.11;100042.03;3563854;40;20049;-65
2022/12/31 04:14:17;;;;;;;1.08;0.63;;;;;;;13.41;97.44;100017.59;3564119;40;20061;-63
2022/12/31 04:16:44;;;;;;;0.98;0.43;;;;;;;13.52;98.03;100032.03;3563744;40;20053;-64
2022/12/31 04:19:11;;;;;;;0.50;0.30;;;;;;;13.56;98.04;100031.59;3567213;40;20129;-64
2022/12/31 04:21:37;;;;;;;4.53;0.75;;;;;;;13.67;98.50;100045.03;3567648;40;20056;-63
2022/12/31 04:24:04;;;;;;;3.45;0.90;;;;;;;13.74;98.39;100017.50;3569591;40;20064;-64
2022/12/31 04:26:30;;;;;;;2.80;1.02;;;;;;;13.84;98.06;100024.66;3564127;40;20359;-65
2022/12/31 04:28:55;;;;;;;0.55;0.55;;;;;;;13.91;98.34;100017.69;3565378;40;20114;-63
2022/12/31 04:31:21;;;;;;;2.20;0.55;;;;;;;13.96;98.37;100006.50;3563716;40;20053;-63
2022/12/31 04:33:47;;;;;;;4.35;1.02;;;;;;;13.52;98.26;99922.16;3567307;40;20052;-64
2022/12/31 04:36:12;;;;;;;2.00;0.77;;;;;;;13.67;98.76;99930.75;3565534;40;20324;-62
2022/12/31 04:38:38;;;;;;;2.83;0.82;;;;;;;14.28;98.15;100008.16;3563775;40;20089;-64
2022/12/31 04:41:16;;;;;;;2.42;0.70;;;;;;;14.33;97.63;99997.75;3567202;40;20057;-62
2022/12/31 04:43:48;;;;;;;3.60;0.70;;;;;;;14.44;96.94;100010.31;3568118;40;20089;-62
2022/12/31 04:46:17;;;;;;;1.38;0.57;;;;;;;14.55;96.63;100019.19;3564599;40;20367;-63
2022/12/31 04:48:43;;;;;;;1.52;0.50;;;;;;;14.62;96.05;100017.66;3566257;40;20048;-63
2022/12/31 04:51:10;;;;;;;5.20;0.77;;;;;;;14.70;94.25;100021.50;3565698;40;20122;-63
2022/12/31 04:53:36;;;;;;;3.80;0.75;;;;;;;14.77;93.62;100037.00;3563174;40;20111;-63
2022/12/31 04:56:02;;;;;;;1.48;0.43;;;;;;;14.83;92.56;100043.72;3563446;40;20381;-63
2022/12/31 04:58:28;;;;;;;3.00;0.60;;;;;;;14.93;92.00;100046.41;3567054;40;20064;-63
2022/12/31 05:00:55;;;;;;;2.38;0.60;;;;;;;14.99;91.27;100049.41;3564336;40;20065;-63
2022/12/31 05:03:24;;;;;;;3.10;0.93;;;;;;;15.03;90.95;100050.84;3564058;40;20101;-63
2022/12/31 05:05:50;;;;;;;1.60;0.55;;;;;;;15.08;90.26;100064.78;3562467;40;20067;-64
2022/12/31 05:08:17;;;;;;;2.20;0.93;;;;;;;14.28;89.85;99914.38;3566322;40;20494;-63
2022/12/31 05:10:47;;;;;;;1.25;0.60;;;;;;;14.62;89.39;99966.25;3564025;40;20064;-63
2022/12/31 05:13:14;;;;;;;2.58;0.43;;;;;;;15.24;88.72;100063.38;3563637;40;20143;-63
2022/12/31 05:15:39;;;;;;;1.63;0.95;;;;;;;15.27;88.35;100063.09;3564190;40;20053;-63
2022/12/31 05:18:07;;;;;;;4.20;1.70;;;;;;;15.35;87.64;100065.94;3564023;40;20060;-63
2022/12/31 05:20:33;;;;;;;2.80;0.68;;;;;;;15.33;87.28;100057.09;3563862;40;20088;-63
2022/12/31 05:22:59;;;;;;;1.98;0.50;;;;;;;15.48;87.07;100071.91;3563275;40;20045;-63
2022/12/31 05:25:25;;;;;;;0.60;0.20;;;;;;;15.54;85.70;100079.44;3566817;40;20064;-63
2022/12/31 05:27:51;;;;;;;2.40;0.50;;;;;;;15.51;86.23;100071.59;3562725;40;20134;-63
2022/12/31 05:30:17;;;;;;;2.00;0.45;;;;;;;15.49;86.44;100073.59;3564029;40;20065;-63
2022/12/31 05:32:45;;;;;;;4.60;0.98;;;;;;;15.54;86.42;100098.41;3564584;40;20068;-64
2022/12/31 05:35:11;;;;;;;3.35;0.50;;;;;;;15.49;87.07;100089.84;3566655;40;20139;-65
2022/12/31 05:37:38;;;;;;;1.90;0.45;;;;;;;15.46;87.71;100100.97;3563810;40;20097;-65
2022/12/31 05:40:05;;;;;;;2.08;0.55;;;;;;;15.37;88.21;100082.88;3563493;40;20071;-64
2022/12/31 05:42:32;;;;;;;1.38;0.40;;;;;;;15.40;88.33;100101.53;3563621;40;20053;-63
2022/12/31 05:44:57;;;;;;;1.35;0.47;;;;;;;15.33;88.26;100078.75;3561720;40;20060;-63
2022/12/31 05:47:24;;;;;;;2.53;0.28;;;;;;;14.85;87.37;100001.13;3562994;40;20083;-62
2022/12/31 05:49:49;;;;;;;3.30;0.50;;;;;;;15.49;86.73;100108.81;3564442;40;20103;-63
2022/12/31 05:52:15;;;;;;;2.35;0.50;;;;;;;15.50;86.78;100085.28;3563948;40;20064;-63
2022/12/31 05:54:41;;;;;;;1.63;0.45;;;;;;;15.54;86.72;100082.16;3565221;40;20303;-63
2022/12/31 05:57:07;;;;;;;6.30;0.63;;;;;;;15.59;86.35;100088.97;3562535;40;20057;-63
2022/12/31 05:59:33;;;;;;;2.10;0.50;;;;;;;15.65;85.21;100085.69;3566793;40;20093;-63
2022/12/31 06:01:59;;;;;;;0.32;0.20;;;;;;;15.67;84.51;100102.69;3564803;40;20045;-63
2022/12/31 06:04:25;;;;;;;1.38;0.43;;;;;;;15.73;84.76;100096.66;3562358;40;20075;-63
2022/12/31 06:06:51;;;;;;;1.75;0.50;;;;;;;15.74;84.29;100085.69;3566320;40;20364;-62
2022/12/31 06:09:18;;;;;;;1.33;0.50;;;;;;;15.86;82.44;100113.50;3562775;40;20066;-63
2022/12/31 06:11:44;;;;;;;1.42;0.55;;;;;;;15.90;82.02;100125.75;3563648;40;20045;-63
2022/12/31 06:14:11;;;;;;;1.38;0.60;;;;;;;15.56;81.29;100035.94;3563337;40;20064;-64
2022/12/31 06:16:38;;;;;;;1.23;0.40;;;;;;;16.05;81.27;100117.13;3562747;40;20151;-64
2022/12/31 06:19:04;;;;;;;1.40;0.38;;;;;;;16.08;79.96;100124.97;3562808;40;20072;-64
2022/12/31 06:21:30;;;;;;;1.38;0.38;;;;;;;16.16;79.66;100119.69;3565856;40;20056;-64
2022/12/31 06:23:56;;;;;;;0.80;0.50;;;;;;;16.23;78.70;100126.22;3568070;40;20048;-63
2022/12/31 06:26:21;;;;;;;3.08;0.57;;;;;;;16.30;77.94;100131.88;3565990;40;20053;-63
2022/12/31 06:28:47;;;;;;;0.95;0.40;;;;;;;16.38;78.21;100126.59;3562730;40;20057;-64
2022/12/31 06:31:14;;;;;;;1.75;0.30;;;;;;;16.41;77.82;100127.13;3564679;40;20064;-64
2022/12/31 06:33:40;;;;;;;1.48;0.55;;;;;;;16.45;77.05;100152.94;3563669;40;20049;-63
2022/12/31 06:36:11;;;;;;;1.58;0.20;;;;;;;16.51;76.58;100135.22;3565757;40;20072;-64
2022/12/31 06:38:40;;;;;;;0.82;0.30;;;;;;;16.55;76.95;100130.34;3562621;40;20127;-63
2022/12/31 06:41:10;;;;;;;7.47;4.88;;;;;;;16.58;75.85;100124.63;3563074;40;20083;-63
2022/12/31 06:43:38;;;;;;;1.40;0.52;;;;;;;16.61;75.46;100121.59;3566091;40;20085;-63
2022/12/31 06:46:07;;;;;;;2.17;0.50;;;;;;;16.70;75.34;100126.13;3563359;40;20100;-64
2022/12/31 06:48:34;;;;;;;0.50;0.22;;;;;;;16.75;75.51;100132.00;3563830;40;20064;-63
2022/12/31 06:51:05;;;;;;;2.67;0.70;;;;;;;16.74;75.58;100135.66;3563222;40;20337;-63
2022/12/31 06:53:31;;;;;;;1.70;0.60;;;;;;;16.80;74.07;100139.69;3564475;40;20059;-63
2022/12/31 06:56:03;;;;;;;1.58;0.52;;;;;;;16.83;75.09;100136.66;3562076;40;20061;-64
2022/12/31 06:58:29;;;;;;;2.03;0.40;;;;;;;16.77;74.88;100129.97;3565382;40;20060;-63
2022/12/31 07:01:41;;;;;;;1.75;0.52;;;;;;;16.81;73.74;100141.38;3563667;40;20126;-63
2022/12/31 07:05:13;;;;;;;2.20;0.52;;;;;;;16.85;73.84;100137.38;3562591;40;20088;-63
2022/12/31 07:08:32;;;;;;;2.55;0.82;;;;;;;16.86;73.94;100133.66;3552363;40;20453;-64
2022/12/31 07:11:17;;;;;;;3.20;0.50;;;;;;;16.84;74.52;100131.09;3559718;40;20380;-62
2022/12/31 07:13:57;;;;;;;3.70;0.73;;;;;;;16.85;73.61;100149.09;3562970;40;20082;-64
2022/12/31 07:17:39;;;;;;;1.75;0.60;;;;;;;16.82;74.66;100148.53;3562072;40;20113;-64
2022/12/31 07:20:17;;;;;;;2.25;0.70;;;;;;;15.79;74.20;99979.56;3518768;40;20489;-62
2022/12/31 07:22:43;;;;;;;1.70;0.73;;;;;;;16.81;74.25;100142.25;3564537;40;20053;-61
2022/12/31 07:25:15;;;;;;;1.70;0.70;;;;;;;16.81;74.28;100139.53;3565337;40;20401;-62
2022/12/31 07:28:03;;;;;;;2.78;0.90;;;;;;;16.81;74.66;100142.25;3563502;40;20060;-62
2022/12/31 07:30:54;;;;;;;2.65;0.73;;;;;;;16.78;75.10;100142.56;3562509;40;20064;-62
2022/12/31 07:33:55;;;;;;;2.47;0.88;;;;;;;16.77;74.53;100146.25;3546529;40;20320;-62
2022/12/31 07:36:51;;;;;;;3.80;0.70;;;;;;;16.79;74.29;100155.13;3567045;40;20303;-62
2022/12/31 07:40:07;;;;;;;3.75;0.75;;;;;;;16.78;74.40;100156.13;3568312;40;20157;-62
2022/12/31 07:42:58;;;;;;;3.55;0.90;;;;;;;15.72;74.81;99987.44;3560267;40;20087;-62
2022/12/31 07:45:49;;;;;;;3.15;1.02;;;;;;;16.73;75.53;100149.41;3564402;40;20060;-62
2022/12/31 07:48:27;;;;;;;1.48;0.52;;;;;;;16.66;75.51;100162.72;3565695;40;20061;-62
2022/12/31 07:50:56;;;;;;;1.88;0.60;;;;;;;15.97;77.43;100075.34;3564432;40;20050;-64
2022/12/31 07:53:25;;;;;;;3.05;0.70;;;;;;;16.42;78.29;100146.97;3567758;40;20379;-63
2022/12/31 07:56:00;;;;;;;5.53;1.08;;;;;;;16.31;79.03;100161.59;3564238;40;20045;-63
2022/12/31 07:58:53;;;;;;;5.00;0.82;;;;;;;16.29;78.37;100152.75;3567511;40;20084;-64
2022/12/31 08:01:34;;;;;;;3.20;0.80;;;;;;;16.23;78.86;100148.75;3567655;40;20093;-64
2022/12/31 08:04:15;;;;;;;2.55;0.82;;;;;;;16.24;78.52;100147.78;3565236;40;20057;-64
2022/12/31 08:07:01;;;;;;;2.00;0.65;;;;;;;16.21;79.42;100167.06;3568608;40;20060;-64
2022/12/31 08:10:01;;;;;;;2.10;0.40;;;;;;;16.14;79.75;100176.78;3567605;40;20064;-65
2022/12/31 08:12:35;;;;;;;2.35;0.68;;;;;;;16.07;80.13;100207.31;3569151;40;20064;-67
2022/12/31 08:15:02;;;;;;;2.35;1.05;;;;;;;15.93;82.10;100195.09;3566255;40;20399;-66
2022/12/31 08:17:28;;;;;;;3.33;0.70;;;;;;;15.84;83.58;100229.31;3568086;40;20089;-64
2022/12/31 08:19:54;;;;;;;3.33;1.02;;;;;;;15.76;84.58;100238.19;3564684;40;20092;-64
2022/12/31 08:22:44;;;;;;;2.53;1.10;;;;;;;15.67;84.78;100247.16;3563902;40;20146;-63
2022/12/31 08:25:44;;;;;;;2.42;0.90;;;;;;;15.69;84.22;100230.75;3569450;40;20126;-64
2022/12/31 08:28:54;;;;;;;1.73;0.80;;;;;;;15.70;84.36;100243.31;3563834;40;20069;-64
2022/12/31 08:31:48;;;;;;;3.65;0.70;;;;;;;15.80;82.57;100248.75;3563091;40;20056;-65
2022/12/31 08:34:38;;;;;;;2.22;0.60;;;;;;;15.81;81.88;100251.28;3569436;40;20067;-64
2022/12/31 08:37:07;;;;;;;1.92;0.70;;;;;;;16.00;81.47;100259.41;3563313;40;20064;-64
2022/12/31 08:40:12;;;;;;;1.60;0.60;;;;;;;16.06;79.99;100292.38;3567444;40;20292;-63
2022/12/31 08:43:03;;;;;;;2.40;0.75;;;;;;;16.07;80.96;100285.94;3567165;40;20060;-66
2022/12/31 08:45:38;;;;;;;2.55;0.82;;;;;;;15.91;80.90;100311.78;3570323;40;20288;-65
2022/12/31 08:48:27;;;;;;;3.33;0.75;;;;;;;15.97;81.10;100275.97;3564472;40;20049;-64
2022/12/31 08:50:53;;;;;;;3.05;0.75;;;;;;;15.96;80.41;100293.22;3563279;40;20061;-66
2022/12/31 08:53:19;;;;;;;1.63;0.50;;;;;;;16.09;79.52;100306.50;3566528;40;20068;-66
2022/12/31 08:55:52;;;;;;;1.75;0.70;;;;;;;15.55;79.35;100224.72;3563587;40;20065;-66
2022/12/31 08:58:42;;;;;;;1.60;0.65;;;;;;;16.18;79.32;100321.91;3563151;40;20057;-65
2022/12/31 09:01:09;;;;;;;4.13;0.80;;;;;;;16.12;79.47;100311.63;3566828;40;20084;-66
2022/12/31 09:04:00;;;;;;;4.75;0.88;;;;;;;16.14;79.82;100338.59;3565578;40;20061;-65
2022/12/31 09:07:00;;;;;;;2.35;0.55;;;;;;;16.07;80.93;100342.88;3563088;40;20061;-65
2022/12/31 09:09:56;;;;;;;3.60;0.77;;;;;;;16.00;81.78;100351.59;3565224;40;20057;-68
2022/12/31 09:12:59;;;;;;;5.85;1.75;;;;;;;15.90;83.04;100341.75;3563368;40;20049;-66
2022/12/31 09:15:59;;;;;;;7.47;1.38;;;;;;;15.77;83.79;100359.13;3558330;40;20093;-66
2022/12/31 09:18:25;;;;;;;4.18;1.02;;;;;;;15.76;84.32;100370.09;3563892;40;20057;-65
2022/12/31 09:20:50;;;;;;;2.42;0.93;;;;;;;15.70;85.25;100374.25;3565298;40;20063;-65
2022/12/31 09:23:16;;;;;;;2.25;0.70;;;;;;;15.66;84.83;100382.72;3563941;40;20067;-66
2022/12/31 09:26:05;;;;;;;4.07;0.85;;;;;;;15.64;84.95;100385.59;3568346;40;20057;-65
2022/12/31 09:29:03;;;;;;;3.40;1.13;;;;;;;13.66;86.00;100066.78;3562707;40;20089;-65
2022/12/31 09:31:44;;;;;;;10.93;2.20;;;;;;;15.58;86.76;100379.88;3562057;40;20419;-65
2022/12/31 09:34:50;;;;;;;3.13;0.88;;;;;;;15.52;86.99;100389.41;3565305;40;20065;-65
2022/12/31 09:37:44;;;;;;;2.08;1.33;;;;;;;15.55;86.82;100389.97;3567539;40;20392;-65
2022/12/31 09:40:27;;;;;;;6.15;1.30;;;;;;;15.57;86.99;100397.97;3563259;40;21278;-64
2022/12/31 09:43:13;;;;;;;2.00;0.80;;;;;;;15.59;86.97;100393.28;3563764;40;20083;-65
2022/12/31 09:46:06;;;;;;;6.20;1.10;;;;;;;15.66;86.15;100393.56;3566596;40;20041;-65
2022/12/31 09:49:04;;;;;;;5.47;1.00;;;;;;;15.70;84.91;100395.91;3563184;40;20057;-64
2022/12/31 09:51:45;;;;;;;2.60;0.95;;;;;;;15.80;83.77;100401.34;3568541;40;20473;-65
2022/12/31 09:54:58;;;;;;;4.07;1.08;;;;;;;15.88;83.35;100393.38;3570333;40;20076;-65
2022/12/31 09:57:39;;;;;;;1.42;0.90;;;;;;;15.96;81.74;100388.13;3564957;40;20060;-65
2022/12/31 10:00:25;;;;;;;4.53;1.38;;;;;;;16.06;80.96;100387.28;3566782;40;20053;-64
2022/12/31 10:03:12;;;;;;;6.82;3.70;;;;;;;16.11;80.79;100394.00;3567623;40;20107;-64
2022/12/31 10:06:14;;;;;;;2.00;1.00;;;;;;;16.20;79.58;100397.69;3564065;40;20075;-64
2022/12/31 10:09:19;;;;;;;3.58;1.17;;;;;;;16.29;79.80;100398.72;3567052;40;20057;-64
2022/12/31 10:12:23;;;;;;;1.30;0.80;;;;;;;16.31;78.97;100413.84;3565129;40;20072;-65
2022/12/31 10:15:15;;;;;;;1.98;1.10;;;;;;;16.30;79.61;100419.41;3564088;40;20373;-64
2022/12/31 10:18:26;;;;;;;2.22;0.88;;;;;;;16.26;80.06;100402.56;3567760;40;20060;-66
2022/12/31 10:21:15;;;;;;;3.80;1.05;;;;;;;16.17;81.51;100393.41;3551311;40;20320;-66
2022/12/31 10:24:27;;;;;;;4.07;1.30;;;;;;;16.21;81.20;100403.00;3564887;40;20052;-64
2022/12/31 10:27:15;;;;;;;4.60;1.25;;;;;;;15.73;81.28;100317.06;3566346;40;20060;-64
2022/12/31 10:30:18;;;;;;;6.20;1.23;;;;;;;16.30;81.02;100390.44;3567212;40;20055;-63
2022/12/31 10:33:15;;;;;;;3.13;1.35;;;;;;;16.34;79.98;100389.16;3569177;40;20067;-66
2022/12/31 10:35:58;;;;;;;4.53;1.02;;;;;;;16.35;80.01;100369.16;3570349;40;20089;-63
2022/12/31 10:39:04;;;;;;;3.58;1.17;;;;;;;16.40;78.54;100366.88;3565820;40;20200;-63
2022/12/31 10:42:15;;;;;;;4.38;1.27;;;;;;;16.48;77.85;100383.28;3562064;40;20070;-65
2022/12/31 10:45:29;;;;;;;4.45;1.35;;;;;;;16.54;77.75;100379.13;3564813;40;20064;-64
2022/12/31 10:48:29;;;;;;;2.55;0.90;;;;;;;16.62;76.91;100386.56;3566565;40;20068;-64
2022/12/31 10:51:06;;;;;;;4.93;1.73;;;;;;;16.66;75.69;100399.69;3562964;40;20292;-64
2022/12/31 10:53:59;;;;;;;3.40;1.02;;;;;;;16.71;75.09;100396.53;3566552;40;20059;-63
2022/12/31 10:57:13;;;;;;;6.60;0.95;;;;;;;16.74;75.37;100409.81;3562757;40;20041;-63
2022/12/31 11:00:00;;;;;;;;;;;;;;;16.79;74.47;100413.00;3567662;40;20045;-63
2022/12/31 11:03:03;;;;;;;2.72;1.10;;;;;;;16.86;74.63;100392.41;3565246;40;20259;-63
2022/12/31 11:06:25;;;;;;;7.38;1.55;;;;;;;16.89;73.68;100419.25;3564370;40;20052;-63
2022/12/31 11:09:34;;;;;;;5.72;1.50;;;;;;;16.95;73.67;100415.09;3564963;40;20053;-63
2022/12/31 11:12:39;;;;;;;4.85;1.20;;;;;;;16.95;73.88;100415.09;3564892;40;20083;-63
2022/12/31 11:15:20;;;;;;;4.93;1.30;;;;;;;16.94;73.25;100414.25;3565686;40;20048;-64
2022/12/31 11:18:35;;;;;;;5.32;1.40;;;;;;;16.96;72.87;100408.66;3562832;40;20057;-63
2022/12/31 11:21:45;;;;;;;7.70;1.83;;;;;;;17.07;71.95;100407.66;3564206;40;20061;-63
2022/12/31 11:24:44;;;;;;;5.32;1.60;;;;;;;17.12;72.19;100432.50;3563850;40;20057;-63
2022/12/31 11:28:14;;;;;;;4.35;1.63;;;;;;;17.12;71.76;100421.63;3562913;40;20053;-64
2022/12/31 11:31:16;;;;;;;5.35;1.65;;;;;;;17.11;71.68;100423.50;3563220;40;20061;-64
2022/12/31 11:34:37;;;;;;;5.38;1.42;;;;;;;17.14;70.98;100428.63;3567452;40;20053;-63
2022/12/31 11:37:47;;;;;;;5.10;1.40;;;;;;;16.66;71.12;100350.00;3564734;40;20046;-64
2022/12/31 11:40:40;;;;;;;4.22;1.48;;;;;;;17.16;70.19;100418.50;3562542;40;20410;-65
2022/12/31 11:43:34;;;;;;;6.43;1.42;;;;;;;17.16;70.67;100433.94;3566882;40;20053;-63
2022/12/31 11:46:37;;;;;;;3.33;1.52;;;;;;;17.14;70.51;100433.22;3565730;40;20396;-64
2022/12/31 11:49:48;;;;;;;5.53;1.70;;;;;;;17.05;71.46;100437.66;3563516;40;20065;-65
2022/12/31 11:53:10;;;;;;;6.03;1.70;;;;;;;16.94;73.36;100411.53;3565322;40;20066;-66
2022/12/31 11:55:59;;;;;;;5.78;1.50;;;;;;;16.87;73.39;100421.28;3563659;40;20067;-66
2022/12/31 11:58:27;;;;;;;4.68;1.88;;;;;;;16.83;72.80;100427.97;3563862;40;20053;-65
2022/12/31 12:01:15;;;;;;;5.25;2.00;;;;;;;16.80;73.53;100428.28;3568574;40;20123;-65
2022/12/31 12:03:43;;;;;;;8.35;2.17;;;;;;;16.78;73.37;100438.44;3563317;40;20093;-65
2022/12/31 12:06:14;;;;;;;6.95;1.60;;;;;;;16.80;72.91;100430.97;3567619;40;20044;-66
2022/12/31 12:08:41;;;;;;;4.60;1.73;;;;;;;16.75;73.04;100425.16;3564187;40;20061;-67
2022/12/31 12:11:20;;;;;;;4.32;1.17;;;;;;;16.66;74.47;100420.56;3564368;40;20055;-67
2022/12/31 12:13:46;;;;;;;5.75;1.42;;;;;;;16.61;73.79;100418.25;3562351;40;20053;-66
2022/12/31 12:16:13;;;;;;;3.25;1.02;;;;;;;16.58;73.86;100412.25;3562943;40;20076;-66
2022/12/31 12:18:48;;;;;;;4.20;1.30;;;;;;;16.61;74.98;100430.97;3568215;40;20057;-66
2022/12/31 12:21:23;;;;;;;5.50;1.25;;;;;;;16.03;75.67;100331.47;3561890;40;20061;-67
2022/12/31 12:24:02;;;;;;;4.45;1.65;;;;;;;16.47;76.49;100410.56;3564424;40;20060;-66
2022/12/31 12:26:41;;;;;;;11.93;5.97;;;;;;;16.41;77.32;100421.97;3567610;40;20600;-66
2022/12/31 12:29:16;;;;;;;9.57;1.60;;;;;;;16.38;76.98;100422.28;3563265;40;20377;-66
2022/12/31 12:32:06;;;;;;;7.38;3.03;;;;;;;16.34;77.23;100416.28;3568859;40;20339;-65
2022/12/31 12:34:38;;;;;;;7.50;1.63;;;;;;;16.39;76.85;100413.13;3568788;40;20424;-65
2022/12/31 12:37:24;;;;;;;3.70;1.40;;;;;;;16.39;76.56;100408.53;3567150;40;20131;-66